createdAt,value
2024-01-14T00:00:42.965Z,79.91
2024-01-14T00:03:10.413Z,79.78
2024-01-14T00:05:37.764Z,79.82
2024-01-14T00:08:05.517Z,79.81
2024-01-14T00:10:32.671Z,79.86
2024-01-14T00:12:59.884Z,79.82
2024-01-14T00:15:27.097Z,79.84
2024-01-14T00:17:54.354Z,79.79
2024-01-14T00:20:21.751Z,79.72
2024-01-14T00:22:49.232Z,79.66
2024-01-14T00:25:18.676Z,79.76
2024-01-14T00:27:45.840Z,79.69
2024-01-14T00:30:13.204Z,79.77
2024-01-14T00:32:40.511Z,79.83
2024-01-14T00:35:08.194Z,79.70
2024-01-14T00:37:35.336Z,79.64
2024-01-14T00:40:02.446Z,79.73
2024-01-14T00:42:29.632Z,79.73
2024-01-14T00:44:56.888Z,79.61
2024-01-14T00:47:24.205Z,79.59
2024-01-14T00:49:51.448Z,79.55
2024-01-14T00:52:18.745Z,79.61
2024-01-14T00:54:45.968Z,79.57
2024-01-14T00:57:13.163Z,79.48
2024-01-14T00:59:40.583Z,79.50
2024-01-14T01:02:08.005Z,79.51
2024-01-14T01:04:35.141Z,79.42
2024-01-14T01:07:02.293Z,79.43
2024-01-14T01:09:29.501Z,79.45
2024-01-14T01:11:56.751Z,79.49
2024-01-14T01:14:23.945Z,79.35
2024-01-14T01:16:51.097Z,79.42
2024-01-14T01:19:18.306Z,79.27
2024-01-14T01:21:45.533Z,79.44
2024-01-14T01:24:16.068Z,79.48
2024-01-14T01:26:43.299Z,79.44
2024-01-14T01:29:10.367Z,79.45
2024-01-14T01:31:45.950Z,79.47
2024-01-14T01:34:17.116Z,79.32
2024-01-14T01:36:44.402Z,79.39
2024-01-14T01:39:11.567Z,79.45
2024-01-14T01:41:38.867Z,79.49
2024-01-14T01:44:06.074Z,79.55
2024-01-14T01:46:35.795Z,79.58
2024-01-14T01:49:04.429Z,79.58
2024-01-14T01:51:32.809Z,79.72
2024-01-14T01:54:00.145Z,79.71
2024-01-14T01:56:27.981Z,79.77
2024-01-14T01:58:55.445Z,79.80
2024-01-14T02:01:23.141Z,79.71
2024-01-14T02:03:54.173Z,79.86
2024-01-14T02:06:22.759Z,79.81
2024-01-14T02:08:50.454Z,79.93
2024-01-14T02:11:17.716Z,79.95
2024-01-14T02:13:44.918Z,79.98
2024-01-14T02:16:12.007Z,79.89
2024-01-14T02:18:39.222Z,79.95
2024-01-14T02:21:09.924Z,79.91
2024-01-14T02:23:41.220Z,79.88
2024-01-14T02:26:08.650Z,79.91
2024-01-14T02:28:35.800Z,80.12
2024-01-14T02:31:03.729Z,80.05
2024-01-14T02:33:31.092Z,80.11
2024-01-14T02:35:58.403Z,79.97
2024-01-14T02:38:25.531Z,80.15
2024-01-14T02:40:52.811Z,80.22
2024-01-14T02:43:19.954Z,80.43
2024-01-14T02:45:47.104Z,80.40
2024-01-14T02:48:14.238Z,80.12
2024-01-14T02:50:41.474Z,80.39
2024-01-14T02:53:09.205Z,80.35
2024-01-14T02:55:36.355Z,80.33
2024-01-14T02:58:03.629Z,80.38
2024-01-14T03:00:30.936Z,80.54
2024-01-14T03:02:58.252Z,80.47
2024-01-14T03:05:25.520Z,80.60
2024-01-14T03:07:52.760Z,80.61
2024-01-14T03:10:19.924Z,80.64
2024-01-14T03:12:47.066Z,80.75
2024-01-14T03:15:14.487Z,80.75
2024-01-14T03:17:41.764Z,80.71
2024-01-14T03:20:09.787Z,80.86
2024-01-14T03:22:37.126Z,80.98
2024-01-14T03:25:04.672Z,81.01
2024-01-14T03:27:31.849Z,81.10
2024-01-14T03:29:59.022Z,81.25
2024-01-14T03:32:26.208Z,81.34
2024-01-14T03:34:53.313Z,81.35
2024-01-14T03:37:20.515Z,81.30
2024-01-14T03:39:47.712Z,81.17
2024-01-14T03:42:14.790Z,81.43
2024-01-14T03:44:43.344Z,81.46
2024-01-14T03:47:10.496Z,81.64
2024-01-14T03:49:38.007Z,81.79
2024-01-14T03:52:05.330Z,81.85
2024-01-14T03:54:32.635Z,81.87
2024-01-14T03:56:59.942Z,81.72
2024-01-14T03:59:27.173Z,81.87
2024-01-14T04:01:54.224Z,81.89
2024-01-14T04:04:21.388Z,82.08
2024-01-14T04:06:48.813Z,82.10
2024-01-14T04:09:16.272Z,82.23
2024-01-14T04:11:43.653Z,82.23
2024-01-14T04:14:10.878Z,82.16
2024-01-14T04:16:39.451Z,82.37
2024-01-14T04:19:07.397Z,82.24
2024-01-14T04:21:35.318Z,82.22
2024-01-14T04:24:05.767Z,82.44
2024-01-14T04:26:32.964Z,82.62
2024-01-14T04:29:00.204Z,82.81
2024-01-14T04:31:27.736Z,82.58
2024-01-14T04:33:55.193Z,82.74
2024-01-14T04:36:22.399Z,82.76
2024-01-14T04:38:49.675Z,82.93
2024-01-14T04:41:16.975Z,82.64
2024-01-14T04:43:44.254Z,82.77
2024-01-14T04:46:12.102Z,82.99
2024-01-14T04:48:39.516Z,83.24
2024-01-14T04:51:06.994Z,83.14
2024-01-14T04:53:34.230Z,83.31
2024-01-14T04:56:02.119Z,83.19
2024-01-14T04:58:29.183Z,83.42
2024-01-14T05:00:56.406Z,83.23
2024-01-14T05:03:23.757Z,83.27
2024-01-14T05:05:51.333Z,83.71
2024-01-14T05:08:18.700Z,83.76
2024-01-14T05:10:46.116Z,83.82
2024-01-14T05:13:13.517Z,84.00
2024-01-14T05:15:40.814Z,83.97
2024-01-14T05:18:08.289Z,84.17
2024-01-14T05:20:35.650Z,84.20
2024-01-14T05:23:05.391Z,84.24
2024-01-14T05:25:32.571Z,84.24
2024-01-14T05:27:59.721Z,84.31
2024-01-14T05:30:27.091Z,84.59
2024-01-14T05:32:54.789Z,84.50
2024-01-14T05:35:21.965Z,84.44
2024-01-14T05:37:49.106Z,84.64
2024-01-14T05:40:16.226Z,84.70
2024-01-14T05:42:44.105Z,84.57
2024-01-14T05:45:14.241Z,84.68
2024-01-14T05:47:41.968Z,84.49
2024-01-14T05:50:10.006Z,84.57
2024-01-14T05:52:37.157Z,84.62
2024-01-14T05:55:05.636Z,84.41
2024-01-14T05:57:32.982Z,84.46
2024-01-14T06:00:00.637Z,84.52
2024-01-14T06:02:29.157Z,84.95
2024-01-14T06:04:56.487Z,84.92
2024-01-14T06:07:23.849Z,84.52
2024-01-14T06:09:51.125Z,84.48
2024-01-14T06:12:18.331Z,84.73
2024-01-14T06:14:45.525Z,84.62
2024-01-14T06:17:12.812Z,84.56
2024-01-14T06:19:42.739Z,84.58
2024-01-14T06:22:10.103Z,84.43
2024-01-14T06:24:37.410Z,84.47
2024-01-14T06:27:05.185Z,84.45
2024-01-14T06:29:32.300Z,84.43
2024-01-14T06:32:02.461Z,84.47
2024-01-14T06:34:29.643Z,84.56
2024-01-14T06:36:56.976Z,84.67
2024-01-14T06:39:24.086Z,84.39
2024-01-14T06:41:53.275Z,84.89
2024-01-14T06:44:20.503Z,84.79
2024-01-14T06:46:48.045Z,84.48
2024-01-14T06:49:15.346Z,84.51
2024-01-14T06:51:46.956Z,84.48
2024-01-14T06:54:14.254Z,84.63
2024-01-14T06:56:45.688Z,84.67
2024-01-14T06:59:19.684Z,84.80
2024-01-14T07:01:50.759Z,84.74
2024-01-14T07:04:18.252Z,85.01
2024-01-14T07:06:45.777Z,85.02
2024-01-14T07:09:14.285Z,84.90
2024-01-14T07:11:41.716Z,84.79
2024-01-14T07:14:08.926Z,84.93
2024-01-14T07:16:37.402Z,85.01
2024-01-14T07:19:05.200Z,85.06
2024-01-14T07:21:32.880Z,85.00
2024-01-14T07:24:00.474Z,85.13
2024-01-14T07:26:27.926Z,85.26
2024-01-14T07:28:55.410Z,85.12
2024-01-14T07:31:28.160Z,85.25
2024-01-14T07:33:55.692Z,85.40
2024-01-14T07:36:23.549Z,85.54
2024-01-14T07:38:53.173Z,85.58
2024-01-14T07:41:20.754Z,85.65
2024-01-14T07:43:48.030Z,85.72
2024-01-14T07:46:15.186Z,85.58
2024-01-14T07:48:43.821Z,85.83
2024-01-14T07:51:11.402Z,85.66
2024-01-14T07:53:38.574Z,85.76
2024-01-14T07:56:06.350Z,85.73
2024-01-14T07:58:33.495Z,85.65
2024-01-14T08:01:03.333Z,85.94
2024-01-14T08:03:34.490Z,85.94
2024-01-14T08:06:02.041Z,85.89
2024-01-14T08:08:30.410Z,85.93
2024-01-14T08:10:57.489Z,85.95
2024-01-14T08:13:25.015Z,85.92
2024-01-14T08:15:58.177Z,85.77
2024-01-14T08:18:31.686Z,86.11
2024-01-14T08:21:00.321Z,86.04
2024-01-14T08:23:31.269Z,85.95
2024-01-14T08:25:59.180Z,86.11
2024-01-14T08:28:26.395Z,85.82
2024-01-14T08:30:53.780Z,85.97
2024-01-14T08:33:21.180Z,85.91
2024-01-14T08:35:48.345Z,86.13
2024-01-14T08:38:15.501Z,85.92
2024-01-14T08:40:42.695Z,85.96
2024-01-14T08:43:10.001Z,85.87
2024-01-14T08:45:37.287Z,85.84
2024-01-14T08:48:06.636Z,85.72
2024-01-14T08:50:34.234Z,85.84
2024-01-14T08:53:01.339Z,85.65
2024-01-14T08:55:30.104Z,85.71
2024-01-14T08:57:57.333Z,85.90
2024-01-14T09:00:24.748Z,85.85
2024-01-14T09:02:52.006Z,85.88
2024-01-14T09:05:19.499Z,85.79
2024-01-14T09:07:46.776Z,85.77
2024-01-14T09:10:14.150Z,85.81
2024-01-14T09:12:41.324Z,85.73
2024-01-14T09:15:09.065Z,85.69
2024-01-14T09:17:36.506Z,85.71
2024-01-14T09:20:05.243Z,85.64
2024-01-14T09:22:32.577Z,85.58
2024-01-14T09:24:59.682Z,85.47
2024-01-14T09:27:29.438Z,85.41
2024-01-14T09:29:56.666Z,85.37
2024-01-14T09:32:23.884Z,85.39
2024-01-14T09:34:51.153Z,85.23
2024-01-14T09:37:18.559Z,85.30
2024-01-14T09:39:46.331Z,85.23
2024-01-14T09:42:36.320Z,85.31
2024-01-14T09:45:06.132Z,85.29
2024-01-14T09:47:34.545Z,85.25
2024-01-14T09:50:02.455Z,85.18
2024-01-14T09:52:34.345Z,85.08
2024-01-14T09:55:02.375Z,85.03
2024-01-14T09:57:33.392Z,84.92
2024-01-14T10:00:07.602Z,84.83
2024-01-14T10:02:38.097Z,84.69
2024-01-14T10:05:05.963Z,84.59
2024-01-14T10:07:34.259Z,84.52
2024-01-14T10:10:02.171Z,84.37
2024-01-14T10:12:29.836Z,84.36
2024-01-14T10:15:02.124Z,84.18
2024-01-14T10:17:29.557Z,84.08
2024-01-14T10:19:59.335Z,83.94
2024-01-14T10:22:29.880Z,84.00
2024-01-14T10:24:58.166Z,84.06
2024-01-14T10:27:35.416Z,83.76
2024-01-14T10:30:10.946Z,83.75
2024-01-14T10:33:15.457Z,83.65
2024-01-14T10:35:26.700Z,83.54
2024-01-14T10:37:54.145Z,83.47
2024-01-14T10:40:21.496Z,83.50
2024-01-14T10:42:48.828Z,83.24
2024-01-14T10:45:16.186Z,83.17
2024-01-14T10:47:48.321Z,82.83
2024-01-14T10:50:19.384Z,82.98
2024-01-14T10:52:57.403Z,83.12
2024-01-14T10:55:41.963Z,83.28
2024-01-14T10:58:19.259Z,83.14
2024-01-14T11:00:51.645Z,83.15
2024-01-14T11:03:20.177Z,82.98
2024-01-14T11:05:47.679Z,82.76
2024-01-14T11:08:17.900Z,82.59
2024-01-14T11:10:45.980Z,82.71
2024-01-14T11:13:29.916Z,82.55
2024-01-14T11:16:15.045Z,82.45
2024-01-14T11:19:02.597Z,82.60
2024-01-14T11:22:17.574Z,82.75
2024-01-14T11:24:53.128Z,82.64
2024-01-14T11:27:25.087Z,82.71
2024-01-14T11:29:53.000Z,82.76
2024-01-14T11:32:25.452Z,82.68
2024-01-14T11:34:55.975Z,82.57
2024-01-14T11:37:43.358Z,82.50
2024-01-14T11:40:31.545Z,82.49
2024-01-14T11:43:09.037Z,82.11
2024-01-14T11:45:38.197Z,82.09
2024-01-14T11:48:07.852Z,82.28
2024-01-14T11:50:37.567Z,82.34
2024-01-14T11:53:08.766Z,82.20
2024-01-14T11:55:36.317Z,82.17
2024-01-14T11:58:15.514Z,82.24
2024-01-14T12:00:44.428Z,82.23
2024-01-14T12:03:14.180Z,82.47
2024-01-14T12:05:42.346Z,82.40
2024-01-14T12:08:10.601Z,82.20
2024-01-14T12:10:38.024Z,82.26
2024-01-14T12:13:09.150Z,82.24
2024-01-14T12:15:38.593Z,82.34
2024-01-14T12:18:08.112Z,82.32
2024-01-14T12:20:35.968Z,82.33
2024-01-14T12:23:07.492Z,82.34
2024-01-14T12:25:37.540Z,82.32
2024-01-14T12:28:05.567Z,82.19
2024-01-14T12:30:36.908Z,82.07
2024-01-14T12:33:07.015Z,82.07
2024-01-14T12:35:36.478Z,82.12
2024-01-14T12:38:05.005Z,82.23
2024-01-14T12:40:32.668Z,82.30
2024-01-14T12:43:01.266Z,82.14
2024-01-14T12:45:28.512Z,82.24
2024-01-14T12:48:03.390Z,82.22
2024-01-14T12:50:34.880Z,82.37
2024-01-14T12:53:06.872Z,82.38
2024-01-14T12:55:34.021Z,84.59
2024-01-14T12:58:02.486Z,82.93
2024-01-14T13:00:33.159Z,81.97
2024-01-14T13:03:01.114Z,82.07
2024-01-14T13:05:28.560Z,81.99
2024-01-14T13:07:55.856Z,82.06
2024-01-14T13:10:22.996Z,82.16
2024-01-14T13:12:50.438Z,82.27
2024-01-14T13:15:18.184Z,82.20
2024-01-14T13:17:46.072Z,82.19
2024-01-14T13:20:13.686Z,82.32
2024-01-14T13:22:40.914Z,82.23
2024-01-14T13:25:08.877Z,82.29
2024-01-14T13:27:36.361Z,82.24
2024-01-14T13:30:05.736Z,82.26
2024-01-14T13:32:38.585Z,82.35
2024-01-14T13:35:07.942Z,82.40
2024-01-14T13:37:39.242Z,82.30
2024-01-14T13:40:07.182Z,82.43
2024-01-14T13:42:37.784Z,82.50
2024-01-14T13:45:07.618Z,82.44
2024-01-14T13:47:35.482Z,82.31
2024-01-14T13:50:04.573Z,82.38
2024-01-14T13:52:32.290Z,82.46
2024-01-14T13:54:59.753Z,82.47
2024-01-14T13:57:27.196Z,82.48
2024-01-14T13:59:54.488Z,82.45
2024-01-14T14:02:23.560Z,82.42
2024-01-14T14:05:02.450Z,82.45
2024-01-14T14:07:35.084Z,82.63
2024-01-14T14:10:02.162Z,84.54
2024-01-14T14:12:29.485Z,83.64
2024-01-14T14:14:58.170Z,82.31
2024-01-14T14:17:25.400Z,82.21
2024-01-14T14:19:53.073Z,82.34
2024-01-14T14:22:21.569Z,82.41
2024-01-14T14:24:49.353Z,82.52
2024-01-14T14:27:19.471Z,82.60
2024-01-14T14:29:48.724Z,82.61
2024-01-14T14:32:16.001Z,82.60
2024-01-14T14:34:44.318Z,82.68
2024-01-14T14:37:11.619Z,82.88
2024-01-14T14:39:38.733Z,82.80
2024-01-14T14:42:08.667Z,82.90
2024-01-14T14:44:36.357Z,82.83
2024-01-14T14:47:03.763Z,82.88
2024-01-14T14:49:31.023Z,82.84
2024-01-14T14:51:58.457Z,83.02
2024-01-14T14:54:25.705Z,82.97
2024-01-14T14:56:52.936Z,83.00
2024-01-14T14:59:21.858Z,82.98
2024-01-14T15:01:49.629Z,83.06
2024-01-14T15:04:17.433Z,83.03
2024-01-14T15:06:46.588Z,82.98
2024-01-14T15:09:16.176Z,83.17
2024-01-14T15:11:43.707Z,83.04
2024-01-14T15:14:11.818Z,83.01
2024-01-14T15:16:41.742Z,83.10
2024-01-14T15:19:09.536Z,83.11
2024-01-14T15:21:37.587Z,83.13
2024-01-14T15:24:05.102Z,83.07
2024-01-14T15:26:32.518Z,83.12
2024-01-14T15:28:59.776Z,83.11
2024-01-14T15:31:27.086Z,83.01
2024-01-14T15:33:54.629Z,82.98
2024-01-14T15:36:22.765Z,83.18
2024-01-14T15:38:50.677Z,83.13
2024-01-14T15:41:17.961Z,83.11
2024-01-14T15:43:45.164Z,83.21
2024-01-14T15:46:12.302Z,83.17
2024-01-14T15:48:42.526Z,83.04
2024-01-14T15:51:13.668Z,83.09
2024-01-14T15:53:43.014Z,83.08
2024-01-14T15:56:10.914Z,83.02
2024-01-14T15:58:40.599Z,83.06
2024-01-14T16:01:14.228Z,82.99
2024-01-14T16:03:45.024Z,83.05
2024-01-14T16:06:14.291Z,82.94
2024-01-14T16:08:42.328Z,82.95
2024-01-14T16:11:10.244Z,82.94
2024-01-14T16:13:37.831Z,83.01
2024-01-14T16:16:06.706Z,83.00
2024-01-14T16:18:35.123Z,82.91
2024-01-14T16:21:06.169Z,82.89
2024-01-14T16:23:40.183Z,82.84
2024-01-14T16:26:09.453Z,82.88
2024-01-14T16:28:37.391Z,82.89
2024-01-14T16:31:11.724Z,82.87
2024-01-14T16:33:44.129Z,82.73
2024-01-14T16:36:17.054Z,82.87
2024-01-14T16:38:45.787Z,82.96
2024-01-14T16:41:13.683Z,82.83
2024-01-14T16:43:41.439Z,82.81
2024-01-14T16:46:09.205Z,82.82
2024-01-14T16:48:37.080Z,82.74
2024-01-14T16:51:09.280Z,82.80
2024-01-14T16:53:41.162Z,82.79
2024-01-14T16:56:14.344Z,82.86
2024-01-14T16:58:44.077Z,82.85
2024-01-14T17:01:16.548Z,82.88
2024-01-14T17:03:51.021Z,82.87
2024-01-14T17:06:20.055Z,82.84
2024-01-14T17:08:48.812Z,82.91
2024-01-14T17:11:20.164Z,82.88
2024-01-14T17:13:47.588Z,82.96
2024-01-14T17:16:27.104Z,82.88
2024-01-14T17:18:59.997Z,82.87
2024-01-14T17:21:29.077Z,82.87
2024-01-14T17:23:56.897Z,82.88
2024-01-14T17:26:24.097Z,82.89
2024-01-14T17:28:51.222Z,82.88
2024-01-14T17:31:19.295Z,82.80
2024-01-14T17:33:49.231Z,82.80
2024-01-14T17:36:18.633Z,82.91
2024-01-14T17:38:48.111Z,82.79
2024-01-14T17:41:15.971Z,82.84
2024-01-14T17:43:43.282Z,82.88
2024-01-14T17:46:11.182Z,82.84
2024-01-14T17:48:40.865Z,82.83
2024-01-14T17:51:10.464Z,82.67
2024-01-14T17:53:42.741Z,82.79
2024-01-14T17:56:13.083Z,82.70
2024-01-14T17:58:41.835Z,82.72
2024-01-14T18:01:11.269Z,82.76
2024-01-14T18:03:41.629Z,82.83
2024-01-14T18:06:10.983Z,82.71
2024-01-14T18:08:38.744Z,82.72
2024-01-14T18:11:05.878Z,82.72
2024-01-14T18:13:32.983Z,82.66
2024-01-14T18:16:01.899Z,82.74
2024-01-14T18:18:29.565Z,82.67
2024-01-14T18:20:57.775Z,82.84
2024-01-14T18:23:25.882Z,82.89
2024-01-14T18:25:53.344Z,82.76
2024-01-14T18:28:20.560Z,82.73
2024-01-14T18:30:47.909Z,82.86
2024-01-14T18:33:15.519Z,82.77
2024-01-14T18:35:44.393Z,82.83
2024-01-14T18:38:14.204Z,82.89
2024-01-14T18:40:41.447Z,82.88
2024-01-14T18:43:13.172Z,82.77
2024-01-14T18:45:40.498Z,82.83
2024-01-14T18:48:08.613Z,82.92
2024-01-14T18:50:36.889Z,82.88
2024-01-14T18:53:06.118Z,82.99
2024-01-14T18:55:36.410Z,83.00
2024-01-14T18:58:03.988Z,83.27
2024-01-14T19:00:31.645Z,83.61
2024-01-14T19:02:59.252Z,82.87
2024-01-14T19:05:27.901Z,82.97
2024-01-14T19:07:55.201Z,82.92
2024-01-14T19:10:22.287Z,82.89
2024-01-14T19:12:50.643Z,82.82
2024-01-14T19:15:19.062Z,82.94
2024-01-14T19:17:46.265Z,82.91
2024-01-14T19:20:13.574Z,82.94
2024-01-14T19:22:41.087Z,82.94
2024-01-14T19:25:10.620Z,82.92
2024-01-14T19:27:38.270Z,82.98
2024-01-14T19:30:07.456Z,82.89
2024-01-14T19:32:35.119Z,82.87
2024-01-14T19:35:02.465Z,83.14
2024-01-14T19:37:30.919Z,83.90
2024-01-14T19:39:59.763Z,82.87
2024-01-14T19:42:27.358Z,82.76
2024-01-14T19:44:54.827Z,82.80
2024-01-14T19:47:22.790Z,82.90
2024-01-14T19:49:49.932Z,82.83
2024-01-14T19:52:17.196Z,82.96
2024-01-14T19:54:44.639Z,82.92
2024-01-14T19:57:12.035Z,82.88
2024-01-14T19:59:39.270Z,82.97
2024-01-14T20:02:06.821Z,82.95
2024-01-14T20:04:33.943Z,83.02
2024-01-14T20:07:01.172Z,83.11
2024-01-14T20:09:28.324Z,84.81
2024-01-14T20:12:01.131Z,83.94
2024-01-14T20:14:28.909Z,82.72
2024-01-14T20:16:57.415Z,82.73
2024-01-14T20:19:25.018Z,82.81
2024-01-14T20:21:52.839Z,82.89
2024-01-14T20:24:21.744Z,82.85
2024-01-14T20:26:49.209Z,82.77
2024-01-14T20:29:16.364Z,82.88
2024-01-14T20:31:43.636Z,82.84
2024-01-14T20:34:11.178Z,82.79
2024-01-14T20:36:38.571Z,82.77
2024-01-14T20:39:06.109Z,82.74
2024-01-14T20:41:33.370Z,82.69
2024-01-14T20:44:00.666Z,82.61
2024-01-14T20:46:27.886Z,82.39
2024-01-14T20:48:55.069Z,82.51
2024-01-14T20:51:22.990Z,82.66
2024-01-14T20:53:50.255Z,82.52
2024-01-14T20:56:17.512Z,82.41
2024-01-14T20:58:44.769Z,82.56
2024-01-14T21:01:11.974Z,82.55
2024-01-14T21:03:39.871Z,82.48
2024-01-14T21:06:11.275Z,82.35
2024-01-14T21:08:40.145Z,82.45
2024-01-14T21:11:07.700Z,82.35
2024-01-14T21:13:34.854Z,82.22
2024-01-14T21:16:01.917Z,82.06
2024-01-14T21:18:29.303Z,82.14
2024-01-14T21:20:57.546Z,82.15
2024-01-14T21:23:24.708Z,82.06
2024-01-14T21:25:51.823Z,82.02
2024-01-14T21:28:19.441Z,81.88
2024-01-14T21:30:46.683Z,82.00
2024-01-14T21:33:14.257Z,82.01
2024-01-14T21:35:41.493Z,82.06
2024-01-14T21:38:08.536Z,82.17
2024-01-14T21:40:35.758Z,82.07
2024-01-14T21:43:02.839Z,81.97
2024-01-14T21:45:30.122Z,81.97
2024-01-14T21:47:57.440Z,82.03
2024-01-14T21:50:24.726Z,81.91
2024-01-14T21:52:51.728Z,81.95
2024-01-14T21:55:19.241Z,81.93
2024-01-14T21:57:46.501Z,81.90
2024-01-14T22:00:14.314Z,82.01
2024-01-14T22:02:41.542Z,81.90
2024-01-14T22:05:09.092Z,81.91
2024-01-14T22:07:36.328Z,81.87
2024-01-14T22:10:03.713Z,81.91
2024-01-14T22:12:30.914Z,81.78
2024-01-14T22:14:58.118Z,81.68
2024-01-14T22:17:25.307Z,81.70
2024-01-14T22:19:52.776Z,81.68
2024-01-14T22:22:20.093Z,81.57
2024-01-14T22:24:47.458Z,81.76
2024-01-14T22:27:14.741Z,81.67
2024-01-14T22:29:41.976Z,81.65
2024-01-14T22:32:09.221Z,81.60
2024-01-14T22:34:36.665Z,81.59
2024-01-14T22:37:04.224Z,81.44
2024-01-14T22:39:32.496Z,81.53
2024-01-14T22:41:59.600Z,81.84
2024-01-14T22:44:26.945Z,82.77
2024-01-14T22:46:55.121Z,81.41
2024-01-14T22:49:22.332Z,81.13
2024-01-14T22:51:50.078Z,81.18
2024-01-14T22:54:17.598Z,81.14
2024-01-14T22:56:44.868Z,81.06
2024-01-14T22:59:12.042Z,80.84
2024-01-14T23:01:39.244Z,80.71
2024-01-14T23:04:08.636Z,80.92
2024-01-14T23:06:36.204Z,80.82
2024-01-14T23:09:03.899Z,80.77
2024-01-14T23:11:31.600Z,80.62
2024-01-14T23:13:58.827Z,80.54
2024-01-14T23:16:25.985Z,80.62
2024-01-14T23:18:53.374Z,80.64
2024-01-14T23:21:20.615Z,80.78
2024-01-14T23:23:49.104Z,80.73
2024-01-14T23:26:16.192Z,80.58
2024-01-14T23:28:43.494Z,80.63
2024-01-14T23:31:10.720Z,80.63
2024-01-14T23:33:38.452Z,80.62
2024-01-14T23:36:06.108Z,80.65
2024-01-14T23:38:33.341Z,80.50
2024-01-14T23:41:00.399Z,80.53
2024-01-14T23:43:27.756Z,80.54
2024-01-14T23:45:54.937Z,80.37
2024-01-14T23:48:22.390Z,80.39
2024-01-14T23:50:49.657Z,80.42
2024-01-14T23:53:17.163Z,80.42
2024-01-14T23:55:44.336Z,80.34
2024-01-14T23:58:14.102Z,80.27
